Time;durP1;ratioP1;P1;durP2;ratioP2;P2;SDS_P1;SDS_P2;PMS_P1;PMS_P2;Temp;Humidity;BMP_temperature;BMP_pressure;BME280_temperature;BME280_humidity;BME280_pressure;Samples;Min_cycle;Max_cycle;Signal;HPM_P1;HPM_P2
2023/04/10 00:02:15;;;;;;;16.98;11.20;;;;;;;3.50;94.79;99966.25;5095310;28;20040;-59
2023/04/10 00:04:40;;;;;;;18.27;10.50;;;;;;;3.73;95.76;99965.41;5099706;28;20023;-59
2023/04/10 00:07:06;;;;;;;14.80;10.18;;;;;;;3.88;95.70;99961.75;5096896;28;20031;-59
2023/04/10 00:09:31;;;;;;;16.75;10.05;;;;;;;3.76;93.43;99959.72;5098185;28;20023;-59
2023/04/10 00:11:57;;;;;;;15.80;9.38;;;;;;;3.80;93.12;99971.63;5103487;28;20442;-59
2023/04/10 00:14:23;;;;;;;13.57;9.30;;;;;;;3.82;92.08;99956.34;5094775;28;20092;-59
2023/04/10 00:16:49;;;;;;;15.50;9.05;;;;;;;4.18;92.93;99953.00;5099666;28;20103;-59
2023/04/10 00:19:15;;;;;;;15.60;9.25;;;;;;;4.26;92.94;99950.25;5097751;28;20032;-59
2023/04/10 00:21:40;;;;;;;14.90;9.70;;;;;;;3.98;92.13;99948.22;5095746;28;20304;-59
2023/04/10 00:24:06;;;;;;;16.02;9.88;;;;;;;3.52;93.52;99944.84;5096602;28;20024;-59
2023/04/10 00:26:31;;;;;;;14.38;9.20;;;;;;;3.37;93.20;99950.09;5095506;28;20020;-59
2023/04/10 00:29:00;;;;;;;14.82;9.20;;;;;;;3.22;94.26;99937.66;5092982;28;20036;-59
2023/04/10 00:31:25;;;;;;;17.98;10.45;;;;;;;2.85;96.00;99940.22;5100720;28;20034;-60
2023/04/10 00:33:51;;;;;;;16.77;10.45;;;;;;;2.81;97.11;99932.63;5089172;28;20028;-60
2023/04/10 00:36:17;;;;;;;17.77;10.20;;;;;;;2.63;98.85;99932.06;5103839;28;20451;-59
2023/04/10 00:38:43;;;;;;;18.52;10.80;;;;;;;2.91;98.66;99934.22;5100906;28;20023;-60
2023/04/10 00:41:08;;;;;;;16.58;10.10;;;;;;;2.78;97.42;99935.63;5101485;28;20081;-59
2023/04/10 00:43:33;;;;;;;16.33;9.82;;;;;;;2.81;97.82;99934.44;5092736;28;20016;-59
2023/04/10 00:45:59;;;;;;;14.32;8.90;;;;;;;2.57;98.83;99923.00;5095286;28;20031;-60
2023/04/10 00:48:25;;;;;;;14.55;9.23;;;;;;;2.89;100.00;99930.91;5102312;28;20450;-60
2023/04/10 00:50:50;;;;;;;14.63;9.35;;;;;;;2.92;98.91;99933.22;5099081;28;20019;-60
2023/04/10 00:53:16;;;;;;;14.75;9.00;;;;;;;2.95;98.04;99935.53;5098200;28;20051;-60
2023/04/10 00:55:42;;;;;;;14.93;9.15;;;;;;;2.74;97.76;99923.72;5098524;28;20116;-58
2023/04/10 00:58:07;;;;;;;17.13;10.02;;;;;;;2.68;98.64;99920.97;5099499;28;20055;-58
2023/04/10 01:00:33;;;;;;;15.57;9.45;;;;;;;2.89;99.48;99925.63;5099302;28;20486;-60
2023/04/10 01:03:00;;;;;;;16.00;9.52;;;;;;;3.03;100.00;99933.63;5090277;28;20035;-58
2023/04/10 01:05:27;;;;;;;15.02;9.73;;;;;;;3.21;97.47;99929.88;5101636;28;20070;-58
2023/04/10 01:07:57;;;;;;;17.70;9.98;;;;;;;3.13;96.59;99928.09;5094642;28;20023;-58
2023/04/10 01:10:33;;;;;;;14.95;9.93;;;;;;;3.12;98.80;99922.97;5092818;28;20016;-58
2023/04/10 01:13:21;;;;;;;13.50;8.80;;;;;;;2.77;97.26;99919.91;5093016;28;20040;-59
2023/04/10 01:15:55;;;;;;;13.05;8.63;;;;;;;2.63;100.00;99923.31;5095231;28;20089;-58
2023/04/10 01:18:25;;;;;;;14.65;8.88;;;;;;;2.86;98.07;99916.22;5096024;28;20457;-58
2023/04/10 01:20:51;;;;;;;16.50;9.80;;;;;;;2.76;98.04;99913.78;5097669;28;20427;-59
2023/04/10 01:23:29;;;;;;;14.20;9.27;;;;;;;2.95;97.34;99909.06;5097410;28;20112;-58
2023/04/10 01:26:18;;;;;;;13.50;8.43;;;;;;;2.95;97.04;99914.34;5094509;28;20112;-59
2023/04/10 01:29:06;;;;;;;17.83;9.15;;;;;;;2.94;97.66;99912.69;5091696;28;20093;-59
2023/04/10 01:31:43;;;;;;;13.70;8.93;;;;;;;2.84;97.81;99910.25;5092629;28;20038;-59
2023/04/10 01:34:10;;;;;;;14.98;9.05;;;;;;;2.66;98.59;99910.53;5095850;28;20028;-59
2023/04/10 01:36:52;;;;;;;14.50;9.30;;;;;;;2.47;98.86;99903.88;5094814;28;20557;-59
2023/04/10 01:39:19;;;;;;;14.48;8.35;;;;;;;2.53;100.00;99905.81;5097202;28;20047;-59
2023/04/10 01:41:44;;;;;;;14.80;9.27;;;;;;;2.42;100.00;99902.72;5073399;28;20047;-59
2023/04/10 01:44:11;;;;;;;15.27;9.88;;;;;;;2.49;100.00;99908.97;5090080;28;20397;-59
2023/04/10 01:46:36;;;;;;;16.73;9.63;;;;;;;2.51;100.00;99907.00;5100149;28;20597;-59
2023/04/10 01:49:02;;;;;;;14.73;9.15;;;;;;;2.38;99.60;99908.38;5095015;28;20024;-59
2023/04/10 01:51:29;;;;;;;15.45;9.45;;;;;;;2.22;100.00;99900.53;5092810;28;20425;-59
2023/04/10 01:53:55;;;;;;;15.52;10.13;;;;;;;2.25;100.00;99908.09;5090585;28;20348;-59
2023/04/10 01:56:20;;;;;;;14.55;9.35;;;;;;;2.36;100.00;99891.84;5095284;28;20039;-58
2023/04/10 01:58:46;;;;;;;17.88;10.65;;;;;;;2.53;100.00;99889.94;5095451;28;20581;-59
2023/04/10 02:01:18;;;;;;;14.90;9.70;;;;;;;2.83;100.00;99889.28;5093199;27;20405;-59
2023/04/10 02:03:43;;;;;;;14.60;9.38;;;;;;;2.59;100.00;99883.94;5100683;28;20055;-59
2023/04/10 02:06:40;;;;;;;16.27;9.70;;;;;;;2.77;100.00;99872.25;5094336;28;20391;-59
2023/04/10 02:09:15;;;;;;;16.85;9.10;;;;;;;2.89;100.00;99870.03;5088387;28;20440;-59
2023/04/10 02:11:44;;;;;;;17.98;10.75;;;;;;;2.99;100.00;99858.19;5096366;28;20028;-59
2023/04/10 02:14:10;;;;;;;18.08;10.50;;;;;;;3.17;100.00;99855.25;5093607;28;20043;-59
2023/04/10 02:16:35;;;;;;;18.23;10.73;;;;;;;3.22;100.00;99852.88;5094722;28;20406;-59
2023/04/10 02:19:01;;;;;;;15.18;9.98;;;;;;;3.22;100.00;99847.56;5086056;28;20039;-59
2023/04/10 02:21:27;;;;;;;17.20;11.23;;;;;;;3.01;98.77;99845.59;5089805;28;20027;-59
2023/04/10 02:23:53;;;;;;;17.00;10.80;;;;;;;3.18;100.00;99846.28;5099250;28;20030;-59
2023/04/10 02:26:19;;;;;;;16.52;10.63;;;;;;;2.86;98.30;99835.97;5080402;28;20312;-59
2023/04/10 02:28:44;;;;;;;16.45;9.75;;;;;;;2.96;100.00;99836.53;5093808;28;20040;-58
2023/04/10 02:31:10;;;;;;;15.82;8.98;;;;;;;2.80;99.17;99830.38;5092012;28;20031;-58
2023/04/10 02:33:35;;;;;;;17.05;9.15;;;;;;;2.51;98.80;99828.41;5093164;28;20063;-59
2023/04/10 02:36:01;;;;;;;15.50;9.75;;;;;;;2.37;100.00;99830.00;5100536;28;20027;-59
2023/04/10 02:38:26;;;;;;;16.17;9.82;;;;;;;2.29;100.00;99827.38;5099168;28;20028;-59
2023/04/10 02:40:51;;;;;;;16.35;10.07;;;;;;;2.28;100.00;99831.03;5096062;28;20446;-59
2023/04/10 02:43:17;;;;;;;15.85;9.48;;;;;;;1.98;100.00;99826.59;5103365;28;20054;-59
2023/04/10 02:45:43;;;;;;;15.27;10.07;;;;;;;1.91;100.00;99819.31;5098569;28;20035;-58
2023/04/10 02:48:09;;;;;;;16.85;10.70;;;;;;;2.10;100.00;99814.63;5096090;28;20886;-59
2023/04/10 02:50:35;;;;;;;16.98;10.38;;;;;;;2.08;100.00;99812.13;5097469;28;20035;-59
2023/04/10 02:53:00;;;;;;;16.65;10.00;;;;;;;2.10;100.00;99819.91;5093512;28;20028;-59
2023/04/10 02:55:26;;;;;;;16.52;9.88;;;;;;;2.07;100.00;99820.25;5098919;28;20028;-58
2023/04/10 02:57:51;;;;;;;15.68;9.90;;;;;;;2.03;100.00;99822.41;5097745;28;20365;-59
2023/04/10 03:00:18;;;;;;;16.90;10.15;;;;;;;2.06;100.00;99813.31;5098360;28;20020;-58
2023/04/10 03:02:44;;;;;;;17.02;10.43;;;;;;;1.98;100.00;99816.00;5100134;28;20019;-59
2023/04/10 03:05:10;;;;;;;15.68;9.50;;;;;;;1.83;100.00;99811.44;5098716;28;20032;-59
2023/04/10 03:07:35;;;;;;;17.85;10.35;;;;;;;1.86;100.00;99820.84;5100438;28;20359;-58
2023/04/10 03:10:01;;;;;;;17.10;10.55;;;;;;;1.91;100.00;99818.50;5098296;28;20032;-59
2023/04/10 03:12:26;;;;;;;17.63;11.05;;;;;;;2.01;100.00;99826.22;5096584;28;20094;-58
2023/04/10 03:14:52;;;;;;;17.70;10.88;;;;;;;2.06;100.00;99823.88;5102361;28;20101;-59
2023/04/10 03:17:17;;;;;;;18.45;9.75;;;;;;;1.77;100.00;99835.06;5105057;28;20697;-59
2023/04/10 03:19:43;;;;;;;15.10;9.32;;;;;;;1.77;100.00;99832.44;5100690;28;20027;-59
2023/04/10 03:22:09;;;;;;;17.35;10.27;;;;;;;2.14;100.00;99826.47;5096878;28;20039;-59
2023/04/10 03:24:35;;;;;;;15.65;9.85;;;;;;;1.84;100.00;99839.50;5094354;28;20028;-59
2023/04/10 03:27:01;;;;;;;17.35;11.35;;;;;;;1.91;100.00;99837.81;5098039;28;20043;-59
2023/04/10 03:29:26;;;;;;;17.70;10.48;;;;;;;2.11;100.00;99824.19;5102207;28;20031;-59
2023/04/10 03:31:51;;;;;;;18.40;11.13;;;;;;;2.30;100.00;99822.94;5102093;28;20027;-59
2023/04/10 03:34:17;;;;;;;18.63;11.48;;;;;;;2.58;100.00;99820.63;5095935;28;20036;-59
2023/04/10 03:36:42;;;;;;;18.80;11.30;;;;;;;2.73;100.00;99813.56;5097852;28;20027;-59
2023/04/10 03:39:08;;;;;;;21.58;11.50;;;;;;;2.27;100.00;99820.63;5100852;28;20020;-58
2023/04/10 03:41:33;;;;;;;21.02;11.95;;;;;;;2.34;100.00;99805.72;5096402;28;20035;-58
2023/04/10 03:44:02;;;;;;;18.67;11.35;;;;;;;2.27;100.00;99810.91;5095702;28;20039;-58
2023/04/10 03:46:27;;;;;;;16.05;9.98;;;;;;;2.27;100.00;99804.75;5095513;28;20099;-58
2023/04/10 03:48:52;;;;;;;15.95;10.02;;;;;;;2.20;100.00;99799.34;5099866;28;20277;-58
2023/04/10 03:51:18;;;;;;;16.63;10.10;;;;;;;2.01;100.00;99797.16;5098563;28;20035;-58
2023/04/10 03:53:44;;;;;;;15.85;9.88;;;;;;;1.71;100.00;99800.41;5097116;28;20028;-58
2023/04/10 03:56:09;;;;;;;16.30;10.32;;;;;;;1.69;100.00;99799.75;5094900;28;20053;-58
2023/04/10 03:58:35;;;;;;;15.88;9.93;;;;;;;1.63;100.00;99802.25;5100420;28;20374;-59
2023/04/10 04:01:00;;;;;;;15.55;10.20;;;;;;;1.74;100.00;99799.22;5098062;28;20089;-59
2023/04/10 04:03:26;;;;;;;14.38;9.65;;;;;;;1.71;100.00;99800.41;5097597;28;20066;-59
2023/04/10 04:05:51;;;;;;;14.88;9.85;;;;;;;1.67;100.00;99807.03;5096893;28;20030;-59
2023/04/10 04:08:17;;;;;;;19.00;10.82;;;;;;;1.58;100.00;99794.03;5101026;28;20458;-59
2023/04/10 04:10:42;;;;;;;18.70;10.77;;;;;;;1.54;100.00;99793.53;5094539;28;20493;-59
2023/04/10 04:13:08;;;;;;;19.35;11.40;;;;;;;1.64;100.00;99788.88;5100904;28;20073;-59
2023/04/10 04:15:33;;;;;;;18.30;10.98;;;;;;;1.78;100.00;99787.34;5098647;27;20047;-59
2023/04/10 04:17:59;;;;;;;16.90;10.30;;;;;;;1.84;100.00;99784.00;5097265;28;20419;-59
2023/04/10 04:20:25;;;;;;;19.30;10.73;;;;;;;1.73;100.00;99784.38;5098112;28;20031;-59
2023/04/10 04:22:50;;;;;;;18.45;11.07;;;;;;;1.69;100.00;99783.06;5097940;28;20135;-59
2023/04/10 04:25:18;;;;;;;20.27;10.57;;;;;;;1.66;100.00;99780.78;5097198;28;20027;-59
2023/04/10 04:27:44;;;;;;;18.05;11.13;;;;;;;1.59;100.00;99783.25;5091115;28;20049;-59
2023/04/10 04:30:10;;;;;;;17.58;11.02;;;;;;;1.62;100.00;99780.31;5096285;28;20024;-59
2023/04/10 04:32:35;;;;;;;17.25;10.75;;;;;;;1.59;100.00;99777.97;5100690;28;20263;-59
2023/04/10 04:35:01;;;;;;;18.08;10.50;;;;;;;1.87;100.00;99783.66;5102610;28;20035;-59
2023/04/10 04:37:26;;;;;;;15.20;9.93;;;;;;;1.65;100.00;99781.78;5097453;28;20034;-59
2023/04/10 04:39:52;;;;;;;16.08;9.60;;;;;;;1.49;100.00;99791.38;5096820;28;20039;-58
2023/04/10 04:42:17;;;;;;;15.63;9.30;;;;;;;1.39;100.00;99788.13;5097232;28;20027;-58
2023/04/10 04:44:42;;;;;;;15.52;9.00;;;;;;;1.59;100.00;99783.25;5096130;28;20470;-58
2023/04/10 04:47:08;;;;;;;17.90;10.35;;;;;;;1.41;100.00;99791.41;5102084;28;20451;-58
2023/04/10 04:49:33;;;;;;;15.80;9.85;;;;;;;1.37;100.00;99787.47;5093032;28;20509;-58
2023/04/10 04:51:59;;;;;;;15.02;9.18;;;;;;;1.44;100.00;99799.00;5092169;28;20409;-59
2023/04/10 04:54:24;;;;;;;16.13;9.75;;;;;;;1.44;100.00;99788.44;5099872;28;20035;-59
2023/04/10 04:56:50;;;;;;;15.35;9.68;;;;;;;1.56;100.00;99785.44;5096542;28;20039;-58
2023/04/10 04:59:15;;;;;;;16.70;9.30;;;;;;;1.76;100.00;99788.50;5093021;28;20027;-59
2023/04/10 05:01:40;;;;;;;14.43;9.13;;;;;;;1.72;100.00;99795.94;5099911;28;20019;-59
2023/04/10 05:04:06;;;;;;;13.18;8.68;;;;;;;1.81;100.00;99794.09;5103166;28;20031;-59
2023/04/10 05:06:31;;;;;;;14.85;9.50;;;;;;;1.55;100.00;99796.97;5097782;28;20452;-58
2023/04/10 05:08:57;;;;;;;13.75;9.30;;;;;;;2.19;100.00;99792.41;5093533;28;20040;-59
2023/04/10 05:11:22;;;;;;;17.05;8.93;;;;;;;2.24;100.00;99792.69;5098564;28;20030;-59
2023/04/10 05:13:48;;;;;;;13.77;8.55;;;;;;;2.78;100.00;99792.66;5090754;28;20055;-59
2023/04/10 05:16:13;;;;;;;16.95;10.00;;;;;;;2.54;98.30;99798.13;5101916;28;20051;-58
2023/04/10 05:18:40;;;;;;;17.35;9.57;;;;;;;2.48;95.82;99801.50;5097451;28;20027;-58
2023/04/10 05:21:05;;;;;;;16.35;10.15;;;;;;;2.36;95.70;99803.72;5090425;28;20465;-58
2023/04/10 05:23:31;;;;;;;13.25;8.43;;;;;;;2.41;95.20;99801.38;5097374;28;20035;-59
2023/04/10 05:25:56;;;;;;;12.68;8.85;;;;;;;2.10;94.58;99798.75;5099240;28;20028;-59
2023/04/10 05:28:22;;;;;;;13.60;8.55;;;;;;;2.00;99.10;99798.13;5094820;28;20398;-59
2023/04/10 05:30:47;;;;;;;14.30;8.77;;;;;;;2.89;94.32;99795.88;5092337;28;20066;-59
2023/04/10 05:33:13;;;;;;;13.57;9.25;;;;;;;3.93;93.60;99802.06;5094169;28;20039;-59
2023/04/10 05:35:38;;;;;;;12.45;8.23;;;;;;;5.58;85.71;99801.13;5097360;28;20416;-58
2023/04/10 05:38:04;;;;;;;13.38;7.80;;;;;;;6.69;73.31;99798.28;5092492;28;20050;-59
2023/04/10 05:40:29;;;;;;;13.10;7.80;;;;;;;7.57;73.22;99798.03;5094535;28;20023;-58
2023/04/10 05:42:55;;;;;;;12.65;8.23;;;;;;;7.48;66.80;99792.06;5095687;28;20493;-58
2023/04/10 05:45:20;;;;;;;16.23;8.93;;;;;;;6.57;72.82;99795.38;5099968;28;20028;-58
2023/04/10 05:47:46;;;;;;;16.05;7.80;;;;;;;6.46;72.10;99802.13;5097665;28;20021;-58
2023/04/10 05:50:11;;;;;;;11.32;7.25;;;;;;;6.53;72.44;99804.78;5099308;28;20031;-59
2023/04/10 05:52:37;;;;;;;10.40;7.25;;;;;;;7.91;68.39;99804.91;5094539;28;20045;-59
2023/04/10 05:55:02;;;;;;;15.52;9.13;;;;;;;7.87;65.41;99810.88;5095612;28;20098;-59
2023/04/10 05:57:28;;;;;;;13.57;8.95;;;;;;;7.67;66.24;99816.28;5096535;28;20047;-59
2023/04/10 05:59:53;;;;;;;11.98;8.00;;;;;;;5.38;75.86;99816.94;5096552;28;20020;-59
2023/04/10 06:02:20;;;;;;;12.23;8.35;;;;;;;6.44;78.53;99816.63;5075771;28;20389;-59
2023/04/10 06:04:46;;;;;;;13.52;9.55;;;;;;;7.28;70.32;99809.97;5097773;28;20482;-59
2023/04/10 06:07:11;;;;;;;11.60;8.55;;;;;;;8.91;68.42;99812.41;5094326;28;20410;-59
2023/04/10 06:09:36;;;;;;;12.00;7.65;;;;;;;11.10;57.78;99811.66;5088686;28;20024;-59
2023/04/10 06:12:02;;;;;;;9.63;7.80;;;;;;;12.69;52.33;99810.47;5095338;28;20552;-59
2023/04/10 06:14:27;;;;;;;12.15;7.68;;;;;;;12.58;52.02;99821.25;5100926;28;20020;-59
2023/04/10 06:16:53;;;;;;;11.60;8.25;;;;;;;11.11;54.92;99821.38;5090501;28;20795;-59
2023/04/10 06:19:18;;;;;;;11.15;8.30;;;;;;;11.45;55.59;99825.09;5096847;28;20042;-59
2023/04/10 06:21:44;;;;;;;12.70;8.38;;;;;;;11.69;54.00;99816.25;5094991;28;20024;-59
2023/04/10 06:24:09;;;;;;;10.52;8.38;;;;;;;11.30;54.92;99808.66;5099469;28;20031;-59
2023/04/10 06:26:36;;;;;;;10.10;8.05;;;;;;;11.45;54.32;99810.88;5093390;28;20032;-59
2023/04/10 06:29:01;;;;;;;10.75;9.02;;;;;;;13.28;50.84;99809.28;5094119;28;20028;-59
2023/04/10 06:31:27;;;;;;;11.80;8.23;;;;;;;14.64;47.49;99807.78;5095295;28;20058;-60
2023/04/10 06:33:52;;;;;;;11.70;9.13;;;;;;;14.02;48.35;99809.78;5094873;28;20062;-60
2023/04/10 06:36:18;;;;;;;13.07;10.50;;;;;;;14.38;47.62;99809.41;5093960;28;20040;-59
2023/04/10 06:38:43;;;;;;;12.68;10.00;;;;;;;13.29;50.15;99808.25;5083151;28;20042;-59
2023/04/10 06:41:09;;;;;;;13.38;10.63;;;;;;;13.20;51.36;99809.66;5093536;28;20298;-59
2023/04/10 06:43:34;;;;;;;14.55;11.65;;;;;;;13.41;49.88;99806.28;5093604;28;20067;-59
2023/04/10 06:46:00;;;;;;;12.35;10.48;;;;;;;12.76;52.42;99804.13;5099671;28;20041;-59
2023/04/10 06:48:26;;;;;;;11.45;8.57;;;;;;;13.03;51.48;99812.34;5094564;28;20035;-59
2023/04/10 06:50:51;;;;;;;10.80;8.52;;;;;;;13.36;50.37;99816.97;5097871;28;20031;-59
2023/04/10 06:53:17;;;;;;;8.73;7.30;;;;;;;12.44;52.65;99812.69;5095367;28;20379;-59
2023/04/10 06:55:42;;;;;;;9.30;7.65;;;;;;;14.08;49.68;99810.66;5097790;28;20027;-60
2023/04/10 06:58:07;;;;;;;9.90;7.60;;;;;;;14.23;49.30;99810.03;5095031;28;20489;-59
2023/04/10 07:00:33;;;;;;;9.50;7.50;;;;;;;14.51;48.20;99805.47;5096701;28;20123;-62
2023/04/10 07:02:58;;;;;;;81.70;58.13;;;;;;;14.57;48.58;99809.88;5096971;28;20031;-59
2023/04/10 07:05:24;;;;;;;12.25;10.18;;;;;;;14.91;47.93;99802.38;5092879;28;20036;-60
2023/04/10 07:07:49;;;;;;;11.23;9.60;;;;;;;14.67;48.38;99804.56;5092318;28;20021;-61
2023/04/10 07:10:15;;;;;;;10.57;7.97;;;;;;;15.47;47.16;99799.28;5092967;28;20058;-59
2023/04/10 07:12:40;;;;;;;8.18;7.05;;;;;;;15.62;46.59;99803.94;5095527;28;20631;-60
2023/04/10 07:15:07;;;;;;;10.13;7.68;;;;;;;14.32;50.45;99805.81;5097748;28;20044;-58
2023/04/10 07:17:32;;;;;;;10.73;8.10;;;;;;;14.28;49.43;99804.69;5097657;28;20484;-60
2023/04/10 07:19:58;;;;;;;10.15;8.13;;;;;;;15.04;49.21;99811.94;5090471;28;20354;-58
2023/04/10 07:22:24;;;;;;;10.50;7.63;;;;;;;15.64;47.73;99805.31;5093040;28;20039;-58
2023/04/10 07:24:50;;;;;;;10.13;7.25;;;;;;;14.95;49.23;99808.06;5093926;28;20020;-60
2023/04/10 07:27:15;;;;;;;11.40;7.97;;;;;;;14.93;49.72;99815.63;5098404;28;20882;-60
2023/04/10 07:29:41;;;;;;;8.75;6.97;;;;;;;15.94;47.14;99806.59;5092603;28;20031;-60
2023/04/10 07:32:06;;;;;;;11.48;8.07;;;;;;;13.76;51.21;99808.66;5100929;28;20023;-58
2023/04/10 07:34:32;;;;;;;11.15;8.32;;;;;;;14.82;49.52;99799.31;5095546;28;20579;-59
2023/04/10 07:36:57;;;;;;;10.00;7.82;;;;;;;14.62;50.44;99804.53;5098354;28;20378;-61
2023/04/10 07:39:23;;;;;;;10.00;7.55;;;;;;;14.72;49.24;99810.03;5097854;28;20505;-60
2023/04/10 07:41:48;;;;;;;11.43;7.88;;;;;;;15.22;48.56;99806.13;5103027;28;20394;-60
2023/04/10 07:44:13;;;;;;;9.50;7.32;;;;;;;14.28;50.52;99811.94;5102057;28;20514;-60
2023/04/10 07:46:40;;;;;;;10.48;7.97;;;;;;;14.76;49.14;99804.94;5099849;28;20054;-60
2023/04/10 07:49:05;;;;;;;10.98;8.45;;;;;;;11.39;56.14;99807.25;5095586;28;20034;-60
2023/04/10 07:51:31;;;;;;;9.90;7.63;;;;;;;12.89;54.73;99804.63;5097519;28;20227;-60
2023/04/10 07:53:56;;;;;;;9.48;7.57;;;;;;;13.90;52.83;99792.09;5100620;28;21152;-60
2023/04/10 07:56:22;;;;;;;11.02;7.50;;;;;;;13.30;53.35;99791.00;5099783;28;20030;-59
2023/04/10 07:58:47;;;;;;;11.48;7.45;;;;;;;13.35;54.06;99777.63;5101010;28;20470;-59
2023/04/10 08:01:13;;;;;;;14.85;7.78;;;;;;;15.09;49.39;99772.28;5099797;28;20581;-59
2023/04/10 08:03:42;;;;;;;11.57;8.20;;;;;;;13.56;53.48;99771.47;5100865;28;20054;-59
2023/04/10 08:06:08;;;;;;;10.27;7.57;;;;;;;14.51;50.95;99770.41;5097221;28;20031;-59
2023/04/10 08:08:36;;;;;;;9.43;6.65;;;;;;;14.06;52.37;99761.59;5098051;28;20475;-59
2023/04/10 08:11:02;;;;;;;8.85;6.75;;;;;;;12.38;51.61;99759.88;5100394;28;20107;-59
2023/04/10 08:13:27;;;;;;;12.15;7.10;;;;;;;11.87;52.74;99759.72;5097339;28;20027;-59
2023/04/10 08:15:52;;;;;;;7.75;5.97;;;;;;;11.67;54.75;99752.03;5094456;28;20059;-59
2023/04/10 08:18:18;;;;;;;7.65;5.85;;;;;;;11.20;53.41;99747.53;5098803;28;20023;-59
2023/04/10 08:20:43;;;;;;;7.95;5.43;;;;;;;12.17;51.45;99746.06;5094097;28;20053;-59
2023/04/10 08:23:09;;;;;;;8.77;6.13;;;;;;;11.69;51.72;99747.25;5100415;28;20054;-59
2023/04/10 08:25:34;;;;;;;8.98;6.00;;;;;;;12.76;50.96;99744.97;5100463;28;20024;-59
2023/04/10 08:28:00;;;;;;;8.50;5.63;;;;;;;13.60;50.25;99739.47;5096130;28;20036;-59
2023/04/10 08:30:25;;;;;;;8.43;6.30;;;;;;;13.30;50.58;99737.97;5091537;28;20047;-59
2023/04/10 08:32:50;;;;;;;8.52;5.82;;;;;;;13.12;49.88;99728.28;5102477;28;20342;-59
2023/04/10 08:35:16;;;;;;;6.18;4.20;;;;;;;12.05;51.45;99724.59;5101784;28;20084;-59
2023/04/10 08:37:41;;;;;;;7.80;5.50;;;;;;;13.20;50.22;99732.44;5092453;28;21009;-59
2023/04/10 08:40:07;;;;;;;7.40;5.35;;;;;;;12.20;52.72;99726.75;5090703;28;20024;-59
2023/04/10 08:42:33;;;;;;;8.50;6.35;;;;;;;12.33;52.63;99719.47;5101562;27;20446;-59
2023/04/10 08:44:58;;;;;;;8.13;5.75;;;;;;;13.01;50.71;99723.81;5098177;28;20028;-59
2023/04/10 08:47:24;;;;;;;9.88;5.57;;;;;;;12.98;51.24;99721.63;5101508;28;20035;-59
2023/04/10 08:49:53;;;;;;;7.35;5.28;;;;;;;13.19;50.76;99716.53;5087278;28;20023;-59
2023/04/10 08:52:25;;;;;;;7.60;5.50;;;;;;;14.26;48.89;99708.97;5100357;27;20081;-59
2023/04/10 08:54:53;;;;;;;6.95;4.70;;;;;;;15.00;46.83;99702.84;5102127;28;20406;-59
2023/04/10 08:57:19;;;;;;;7.20;5.25;;;;;;;14.21;46.97;99707.03;5097839;28;20104;-59
2023/04/10 08:59:50;;;;;;;7.45;5.35;;;;;;;13.49;48.20;99710.78;5100482;28;20031;-59
2023/04/10 09:02:16;;;;;;;7.43;5.13;;;;;;;13.52;48.99;99705.69;5098316;28;20036;-59
2023/04/10 09:04:51;;;;;;;6.60;3.80;;;;;;;14.23;44.54;99699.50;5100342;28;20027;-60
2023/04/10 09:07:16;;;;;;;6.38;4.30;;;;;;;14.13;43.50;99688.63;5099171;28;20066;-59
2023/04/10 09:09:42;;;;;;;6.28;4.05;;;;;;;14.01;44.84;99686.88;5096820;28;20028;-59
2023/04/10 09:12:08;;;;;;;6.93;4.63;;;;;;;13.40;45.74;99702.31;5090550;28;20435;-59
2023/04/10 09:14:34;;;;;;;6.50;4.47;;;;;;;13.28;44.40;99688.16;5100457;28;20227;-59
2023/04/10 09:17:21;;;;;;;6.93;4.78;;;;;;;13.49;44.63;99691.94;5093672;28;20111;-59
2023/04/10 09:19:47;;;;;;;6.43;4.30;;;;;;;13.91;43.21;99681.38;5100000;28;20031;-61
2023/04/10 09:22:13;;;;;;;7.50;4.43;;;;;;;13.87;45.11;99674.06;5101576;28;20586;-60
2023/04/10 09:24:42;;;;;;;6.68;4.20;;;;;;;13.87;43.73;99674.88;5100300;28;20027;-60
2023/04/10 09:27:08;;;;;;;5.93;4.00;;;;;;;13.96;43.39;99673.34;5097615;28;20422;-58
2023/04/10 09:29:44;;;;;;;5.68;3.55;;;;;;;13.96;44.86;99662.56;5096506;28;20502;-59
2023/04/10 09:32:12;;;;;;;8.02;4.20;;;;;;;13.96;44.04;99657.19;5094908;28;20074;-61
2023/04/10 09:34:52;;;;;;;7.45;4.97;;;;;;;13.26;44.62;99661.47;5095025;28;20106;-60
2023/04/10 09:37:19;;;;;;;5.72;4.22;;;;;;;13.96;42.93;99657.19;5096727;28;20035;-58
2023/04/10 09:39:45;;;;;;;5.43;4.30;;;;;;;13.77;42.28;99658.59;5097207;28;20452;-60
2023/04/10 09:42:11;;;;;;;6.55;4.22;;;;;;;13.69;44.01;99642.88;5092879;28;20323;-59
2023/04/10 09:44:38;;;;;;;6.18;3.78;;;;;;;13.99;44.09;99647.78;5104582;28;20120;-59
2023/04/10 09:47:12;;;;;;;6.10;4.05;;;;;;;13.59;44.42;99636.31;5098773;28;20505;-59
2023/04/10 09:49:53;;;;;;;6.82;4.15;;;;;;;14.35;44.09;99630.06;5093124;28;20115;-59
2023/04/10 09:52:20;;;;;;;6.28;4.28;;;;;;;14.12;44.03;99628.50;5098349;28;20595;-59
2023/04/10 09:54:45;;;;;;;5.72;4.45;;;;;;;13.67;43.02;99620.78;5096452;28;20485;-59
2023/04/10 09:57:13;;;;;;;5.93;4.22;;;;;;;14.00;43.48;99619.75;5095671;28;20032;-60
2023/04/10 09:59:39;;;;;;;11.25;4.68;;;;;;;14.63;44.07;99618.16;5084367;28;20081;-59
2023/04/10 10:02:05;;;;;;;6.03;4.20;;;;;;;14.96;43.69;99626.97;5097926;28;20063;-59
2023/04/10 10:04:30;;;;;;;5.53;4.13;;;;;;;14.50;42.39;99612.34;5096193;28;20051;-59
2023/04/10 10:06:56;;;;;;;6.07;4.07;;;;;;;14.17;42.99;99619.63;5097521;28;20047;-60
2023/04/10 10:09:21;;;;;;;6.30;4.47;;;;;;;14.63;42.53;99617.34;5089498;28;20040;-59
2023/04/10 10:11:46;;;;;;;6.05;3.90;;;;;;;15.64;41.58;99609.97;5093856;28;20035;-59
2023/04/10 10:14:14;;;;;;;5.78;3.72;;;;;;;15.20;42.27;99613.88;5093040;28;20035;-59
2023/04/10 10:16:48;;;;;;;5.70;3.33;;;;;;;14.58;41.66;99601.13;5094510;28;20058;-59
2023/04/10 10:19:22;;;;;;;5.25;3.67;;;;;;;14.28;41.76;99593.56;5093997;28;20308;-59
2023/04/10 10:21:48;;;;;;;5.70;4.18;;;;;;;15.48;41.02;99595.63;5092312;28;20046;-59
2023/04/10 10:24:13;;;;;;;6.68;3.95;;;;;;;16.04;41.14;99587.63;5074526;28;20739;-59
2023/04/10 10:26:39;;;;;;;5.60;3.85;;;;;;;15.98;41.18;99593.31;5098614;28;20020;-59
2023/04/10 10:29:12;;;;;;;7.00;4.13;;;;;;;15.35;40.71;99596.94;5091807;28;20032;-59
2023/04/10 10:31:38;;;;;;;5.38;3.60;;;;;;;15.10;42.03;99594.91;5098615;28;20062;-59
2023/04/10 10:34:06;;;;;;;5.57;4.22;;;;;;;15.90;40.93;99587.38;5078652;28;20031;-60
2023/04/10 10:36:32;;;;;;;4.88;3.55;;;;;;;15.42;41.63;99572.34;5093069;28;20362;-59
2023/04/10 10:39:13;;;;;;;6.47;3.95;;;;;;;17.56;38.43;99573.19;5089324;28;20476;-59
2023/04/10 10:42:11;;;;;;;8.70;4.70;;;;;;;18.45;37.88;99570.38;5092052;28;20024;-59
2023/04/10 10:45:23;;;;;;;6.28;4.50;;;;;;;15.37;41.21;99561.53;5063807;28;20070;-59
2023/04/10 10:47:50;;;;;;;6.00;4.40;;;;;;;15.80;40.38;99567.59;5097638;28;20110;-59
2023/04/10 10:50:16;;;;;;;5.20;3.47;;;;;;;15.16;41.16;99576.88;5077285;28;20028;-59
2023/04/10 10:52:48;;;;;;;6.22;4.28;;;;;;;16.50;40.77;99568.69;5097936;28;20318;-59
2023/04/10 10:55:44;;;;;;;6.68;4.43;;;;;;;15.70;40.39;99560.28;5100155;28;20048;-59
2023/04/10 10:58:09;;;;;;;6.65;4.28;;;;;;;15.08;40.14;99543.09;5095355;28;20390;-59
2023/04/10 11:00:50;;;;;;;6.65;4.18;;;;;;;15.42;41.15;99537.25;5090634;28;20696;-59
2023/04/10 11:03:15;;;;;;;6.05;4.05;;;;;;;16.54;39.84;99523.75;5094449;28;20024;-59
2023/04/10 11:05:55;;;;;;;4.97;3.60;;;;;;;15.87;40.13;99528.41;5096414;28;20364;-59
2023/04/10 11:08:32;;;;;;;5.60;3.70;;;;;;;16.38;41.43;99522.19;5098182;28;20027;-60
2023/04/10 11:11:05;;;;;;;4.82;3.42;;;;;;;16.76;40.62;99528.03;5102537;28;20123;-59
2023/04/10 11:13:31;;;;;;;6.30;3.97;;;;;;;16.20;40.23;99515.44;5103238;28;20027;-59
2023/04/10 11:15:56;;;;;;;4.75;3.47;;;;;;;16.74;39.92;99513.94;5119332;27;20493;-59
2023/04/10 11:18:47;;;;;;;5.18;3.40;;;;;;;16.01;39.62;99512.47;5098143;27;20106;-59
2023/04/10 11:21:12;;;;;;;4.75;3.35;;;;;;;16.60;38.78;99503.72;5108875;27;20043;-59
2023/04/10 11:23:58;;;;;;;5.63;2.83;;;;;;;15.77;39.62;99497.88;5096797;27;20024;-59
2023/04/10 11:26:39;;;;;;;5.45;3.08;;;;;;;15.86;40.57;99488.97;5103406;28;20032;-59
2023/04/10 11:29:16;;;;;;;4.30;3.00;;;;;;;16.63;39.03;99479.91;5100790;28;20027;-59